createdAt,value
2019-03-15T00:02:49.471Z,83.08
2019-03-15T00:10:39.609Z,83.18
2019-03-15T00:15:42.180Z,84.76
2019-03-15T00:18:10.678Z,84.20
2019-03-15T00:20:39.103Z,84.20
2019-03-15T00:23:07.530Z,84.97
2019-03-15T00:25:35.990Z,85.17
2019-03-15T00:28:04.417Z,86.04
2019-03-15T00:30:52.265Z,86.36
2019-03-15T00:33:20.702Z,86.68
2019-03-15T00:38:42.347Z,86.94
2019-03-15T00:41:11.097Z,86.38
2019-03-15T00:46:15.425Z,85.96
2019-03-15T00:48:43.933Z,86.85
2019-03-15T00:51:12.364Z,86.31
2019-03-15T00:53:40.789Z,86.50
2019-03-15T00:56:09.245Z,86.93
2019-03-15T00:58:37.756Z,86.48
2019-03-15T01:01:06.177Z,86.78
2019-03-15T01:06:08.334Z,87.07
2019-03-15T01:08:36.756Z,86.32
2019-03-15T01:11:24.560Z,86.82
2019-03-15T01:13:52.985Z,87.01
2019-03-15T01:16:21.414Z,87.31
2019-03-15T01:18:49.868Z,86.98
2019-03-15T01:21:18.294Z,87.21
2019-03-15T01:23:46.723Z,86.66
2019-03-15T01:26:15.173Z,86.22
2019-03-15T01:29:02.856Z,85.96
2019-03-15T01:31:31.311Z,84.96
2019-03-15T01:33:59.744Z,85.45
2019-03-15T01:36:28.152Z,85.24
2019-03-15T01:41:30.911Z,85.38
2019-03-15T01:43:59.362Z,85.84
2019-03-15T01:46:27.812Z,86.08
2019-03-15T01:49:15.559Z,85.62
2019-03-15T01:54:18.325Z,86.05
2019-03-15T01:59:40.012Z,86.66
2019-03-15T02:04:42.633Z,87.40
2019-03-15T02:09:45.098Z,88.00
2019-03-15T02:12:13.564Z,86.97
2019-03-15T02:14:41.989Z,87.92
2019-03-15T02:17:10.419Z,87.58
2019-03-15T02:19:38.897Z,87.66
2019-03-15T02:22:08.398Z,88.25
2019-03-15T02:24:37.491Z,88.76
2019-03-15T02:27:05.941Z,89.20
2019-03-15T02:29:34.368Z,89.27
2019-03-15T02:32:02.789Z,89.73
2019-03-15T02:37:06.954Z,90.64
2019-03-15T02:42:10.061Z,91.28
2019-03-15T02:44:39.180Z,91.14
2019-03-15T02:47:08.816Z,90.84
2019-03-15T02:49:37.246Z,90.69
2019-03-15T02:52:05.673Z,90.79
2019-03-15T02:54:34.136Z,91.21
2019-03-15T02:57:02.561Z,90.63
2019-03-15T02:59:30.981Z,91.48
2019-03-15T03:02:00.683Z,91.54
2019-03-15T03:04:29.338Z,90.78
2019-03-15T03:06:57.769Z,91.17
2019-03-15T03:09:26.413Z,91.13
2019-03-15T03:11:54.828Z,90.86
2019-03-15T03:14:23.261Z,90.78
2019-03-15T03:16:51.712Z,90.95
2019-03-15T03:19:20.137Z,90.72
2019-03-15T03:21:48.597Z,90.92
2019-03-15T03:24:17.403Z,91.00
2019-03-15T03:26:45.845Z,90.54
2019-03-15T03:29:14.266Z,90.47
2019-03-15T03:31:44.236Z,90.85
2019-03-15T03:34:13.346Z,90.09
2019-03-15T03:36:41.787Z,90.31
2019-03-15T03:39:10.269Z,90.34
2019-03-15T03:41:38.708Z,90.25
2019-03-15T03:44:07.116Z,90.38
2019-03-15T03:46:35.599Z,89.11
2019-03-15T03:49:04.025Z,89.50
2019-03-15T03:51:32.450Z,89.16
2019-03-15T03:54:01.110Z,88.70
2019-03-15T03:56:29.533Z,89.26
2019-03-15T03:58:58.027Z,88.32
2019-03-15T04:01:27.284Z,87.87
2019-03-15T04:03:55.782Z,87.92
2019-03-15T04:06:24.235Z,87.80
2019-03-15T04:08:52.796Z,87.21
2019-03-15T04:11:21.278Z,87.75
2019-03-15T04:13:49.649Z,87.91
2019-03-15T04:16:18.259Z,87.82
2019-03-15T04:18:46.700Z,89.00
2019-03-15T04:21:15.132Z,89.09
2019-03-15T04:23:43.703Z,89.26
2019-03-15T04:26:12.134Z,89.55
2019-03-15T04:28:40.561Z,89.83
2019-03-15T04:31:09.034Z,90.55
2019-03-15T04:33:37.475Z,90.44
2019-03-15T04:36:05.896Z,91.12
2019-03-15T04:38:34.489Z,90.90
2019-03-15T04:41:02.932Z,90.89
2019-03-15T04:43:31.358Z,91.22
2019-03-15T04:45:59.894Z,92.12
2019-03-15T04:48:28.331Z,92.41
2019-03-15T04:50:56.756Z,93.13
2019-03-15T04:53:25.209Z,92.51
2019-03-15T04:55:53.639Z,92.40
2019-03-15T04:58:22.074Z,92.57
2019-03-15T05:00:50.620Z,91.81
2019-03-15T05:03:19.056Z,92.91
2019-03-15T05:05:47.491Z,93.76
2019-03-15T05:08:16.020Z,94.55
2019-03-15T05:10:44.456Z,94.94
2019-03-15T05:13:12.898Z,95.99
2019-03-15T05:15:41.509Z,95.63
2019-03-15T05:18:09.965Z,95.28
2019-03-15T05:20:38.398Z,96.90
2019-03-15T05:23:07.271Z,98.26
2019-03-15T05:25:35.704Z,99.07
2019-03-15T05:28:04.131Z,98.56
2019-03-15T05:30:32.594Z,99.52
2019-03-15T05:33:01.024Z,100.00
2019-03-15T05:35:29.463Z,100.00
2019-03-15T05:37:57.939Z,100.00
2019-03-15T05:40:26.366Z,100.00
2019-03-15T05:42:54.820Z,100.00
2019-03-15T05:45:23.314Z,100.00
2019-03-15T05:47:51.748Z,100.00
2019-03-15T05:50:20.194Z,100.00
2019-03-15T05:52:48.896Z,100.00
2019-03-15T05:55:17.334Z,100.00
2019-03-15T05:57:45.764Z,100.00
2019-03-15T06:00:15.605Z,100.00
2019-03-15T06:02:44.045Z,100.00
2019-03-15T06:05:12.809Z,100.00
2019-03-15T06:07:41.450Z,100.00
2019-03-15T06:10:11.825Z,100.00
2019-03-15T06:12:40.260Z,100.00
2019-03-15T06:15:10.765Z,100.00
2019-03-15T06:17:39.199Z,100.00
2019-03-15T06:20:11.940Z,100.00
2019-03-15T06:22:40.420Z,100.00
2019-03-15T06:25:11.022Z,100.00
2019-03-15T06:27:39.466Z,100.00
2019-03-15T06:30:11.182Z,100.00
2019-03-15T06:32:39.623Z,100.00
2019-03-15T06:35:10.522Z,100.00
2019-03-15T06:37:39.315Z,100.00
2019-03-15T06:40:09.473Z,100.00
2019-03-15T06:42:37.907Z,100.00
2019-03-15T06:45:14.256Z,100.00
2019-03-15T06:47:42.711Z,100.00
2019-03-15T06:50:11.297Z,100.00
2019-03-15T06:52:39.762Z,100.00
2019-03-15T06:55:09.564Z,100.00
2019-03-15T06:57:38.064Z,100.00
2019-03-15T07:00:14.925Z,100.00
2019-03-15T07:02:43.708Z,100.00
2019-03-15T07:05:12.708Z,100.00
2019-03-15T07:07:41.219Z,100.00
2019-03-15T07:10:10.897Z,100.00
2019-03-15T07:12:40.366Z,100.00
2019-03-15T07:15:11.352Z,100.00
2019-03-15T07:17:39.880Z,100.00
2019-03-15T07:20:18.196Z,100.00
2019-03-15T07:22:46.802Z,100.00
2019-03-15T07:25:15.304Z,100.00
2019-03-15T07:27:43.774Z,100.00
2019-03-15T07:30:14.146Z,100.00
2019-03-15T07:32:42.610Z,100.00
2019-03-15T07:35:11.051Z,100.00
2019-03-15T07:37:39.487Z,100.00
2019-03-15T07:40:09.991Z,100.00
2019-03-15T07:42:38.472Z,100.00
2019-03-15T07:45:09.437Z,100.00
2019-03-15T07:47:37.865Z,100.00
2019-03-15T07:50:09.568Z,100.00
2019-03-15T07:52:38.001Z,100.00
2019-03-15T07:55:08.375Z,100.00
2019-03-15T07:57:36.860Z,100.00
2019-03-15T08:00:15.623Z,100.00
2019-03-15T08:02:44.078Z,100.00
2019-03-15T08:05:12.642Z,100.00
2019-03-15T08:07:45.350Z,100.00
2019-03-15T08:10:12.693Z,100.00
2019-03-15T08:12:41.358Z,100.00
2019-03-15T08:15:12.199Z,100.00
2019-03-15T08:17:40.821Z,100.00
2019-03-15T08:20:13.603Z,100.00
2019-03-15T08:22:42.104Z,100.00
2019-03-15T08:25:11.744Z,100.00
2019-03-15T08:27:40.231Z,100.00
2019-03-15T08:30:13.761Z,100.00
2019-03-15T08:32:43.975Z,100.00
2019-03-15T08:35:13.196Z,100.00
2019-03-15T08:37:41.802Z,100.00
2019-03-15T08:40:14.998Z,100.00
2019-03-15T08:42:43.419Z,100.00
2019-03-15T08:45:22.778Z,100.00
2019-03-15T08:47:51.216Z,100.00
2019-03-15T08:50:59.888Z,100.00
2019-03-15T08:53:28.313Z,100.00
2019-03-15T08:55:56.752Z,100.00
2019-03-15T08:58:25.209Z,100.00
2019-03-15T09:00:53.636Z,100.00
2019-03-15T09:03:27.828Z,100.00
2019-03-15T09:05:52.269Z,100.00
2019-03-15T09:08:20.693Z,100.00
2019-03-15T09:10:49.121Z,100.00
2019-03-15T09:13:17.623Z,100.00
2019-03-15T09:15:46.050Z,100.00
2019-03-15T09:18:14.478Z,100.00
2019-03-15T09:23:16.733Z,100.00
2019-03-15T09:25:45.166Z,100.00
2019-03-15T09:30:47.294Z,100.00
2019-03-15T09:33:15.732Z,100.00
2019-03-15T09:35:44.195Z,100.00
2019-03-15T09:41:08.196Z,100.00
2019-03-15T09:43:36.626Z,100.00
2019-03-15T09:46:05.065Z,100.00
2019-03-15T09:51:07.852Z,100.00
2019-03-15T09:56:09.904Z,100.00
2019-03-15T09:58:38.338Z,100.00
2019-03-15T10:04:19.950Z,100.00
2019-03-15T10:09:45.873Z,99.86
2019-03-15T10:17:22.969Z,97.11
2019-03-15T10:20:12.364Z,97.30
2019-03-15T10:23:05.933Z,96.13
2019-03-15T10:25:28.881Z,95.71
2019-03-15T10:27:57.312Z,96.07
2019-03-15T10:30:25.868Z,94.95
2019-03-15T10:32:54.297Z,94.03
2019-03-15T10:35:22.726Z,93.38
2019-03-15T10:38:10.434Z,93.94
2019-03-15T10:40:38.862Z,91.82
2019-03-15T10:43:07.295Z,92.74
2019-03-15T10:45:35.754Z,91.92
2019-03-15T10:51:12.274Z,92.16
2019-03-15T10:53:40.705Z,90.67
2019-03-15T10:56:09.154Z,91.32
2019-03-15T10:58:37.617Z,90.59
2019-03-15T11:01:25.235Z,89.46
2019-03-15T11:03:53.723Z,89.90
2019-03-15T11:06:22.150Z,90.03
2019-03-15T11:08:50.578Z,89.26
2019-03-15T11:13:55.657Z,89.46
2019-03-15T11:19:16.697Z,88.50
2019-03-15T11:21:45.179Z,88.84
2019-03-15T11:24:13.609Z,89.58
2019-03-15T11:26:42.069Z,89.14
2019-03-15T11:29:10.550Z,89.74
2019-03-15T11:31:38.978Z,89.26
2019-03-15T11:34:26.707Z,88.35
2019-03-15T11:36:58.541Z,88.88
2019-03-15T11:39:44.525Z,88.63
2019-03-15T11:42:15.015Z,88.99
2019-03-15T11:45:02.955Z,88.99
2019-03-15T11:48:03.382Z,89.14
2019-03-15T11:51:00.593Z,88.36
2019-03-15T11:53:29.021Z,87.65
2019-03-15T11:55:57.451Z,88.68
2019-03-15T11:58:25.930Z,88.90
2019-03-15T12:01:13.507Z,87.94
2019-03-15T12:06:16.530Z,87.39
2019-03-15T12:08:44.994Z,88.64
2019-03-15T12:11:13.422Z,87.98
2019-03-15T12:13:41.849Z,87.31
2019-03-15T12:16:10.330Z,87.55
2019-03-15T12:18:38.757Z,87.55
2019-03-15T12:21:26.414Z,87.77
2019-03-15T12:23:54.833Z,86.92
2019-03-15T12:26:23.264Z,87.26
2019-03-15T12:28:51.722Z,87.36
2019-03-15T12:31:20.154Z,87.11
2019-03-15T12:34:07.806Z,86.92
2019-03-15T12:36:36.238Z,87.23
2019-03-15T12:39:44.642Z,87.52
2019-03-15T12:42:32.391Z,87.33
2019-03-15T12:45:00.876Z,87.11
2019-03-15T12:47:29.304Z,86.85
2019-03-15T12:49:57.738Z,87.21
2019-03-15T12:52:26.248Z,87.09
2019-03-15T12:54:54.677Z,86.90
2019-03-15T13:44:22.407Z,89.28
2019-03-15T13:46:50.849Z,89.48
2019-03-15T13:49:19.283Z,89.84
2019-03-15T13:54:21.345Z,89.88
2019-03-15T13:56:49.829Z,89.55
2019-03-15T13:59:18.268Z,90.04
2019-03-15T14:01:53.809Z,89.59
2019-03-15T14:06:56.269Z,87.57
2019-03-15T14:09:24.703Z,87.79
2019-03-15T14:11:53.203Z,87.25
2019-03-15T14:14:21.647Z,86.67
2019-03-15T14:16:50.085Z,86.95
2019-03-15T14:21:52.489Z,86.18
2019-03-15T14:24:22.821Z,86.40
2019-03-15T14:26:51.211Z,86.24
2019-03-15T14:30:17.428Z,85.69
2019-03-15T14:32:45.879Z,86.13
2019-03-15T14:35:33.486Z,86.44
2019-03-15T14:41:47.124Z,86.53
2019-03-15T14:49:01.882Z,86.63
2019-03-15T14:51:30.347Z,85.76
2019-03-15T14:53:58.900Z,85.45
2019-03-15T14:56:27.616Z,85.45
2019-03-15T14:58:56.080Z,85.18
2019-03-15T15:01:24.528Z,84.57
2019-03-15T15:03:53.100Z,84.89
2019-03-15T15:06:21.614Z,85.11
2019-03-15T15:08:50.060Z,84.55
2019-03-15T15:11:18.941Z,84.19
2019-03-15T15:13:47.479Z,84.62
2019-03-15T15:16:15.926Z,84.10
2019-03-15T15:18:44.576Z,83.43
2019-03-15T15:21:13.042Z,83.78
2019-03-15T15:23:41.484Z,83.45
2019-03-15T15:26:09.977Z,83.66
2019-03-15T15:28:38.424Z,83.83
2019-03-15T15:31:06.899Z,84.26
2019-03-15T15:33:35.569Z,83.79
2019-03-15T15:36:04.169Z,84.19
2019-03-15T15:38:32.613Z,84.20
2019-03-15T15:41:01.130Z,84.63
2019-03-15T15:43:29.596Z,84.51
2019-03-15T15:45:58.047Z,84.65
2019-03-15T15:48:26.955Z,84.30
2019-03-15T15:50:55.466Z,84.65
2019-03-15T15:56:52.493Z,84.64
2019-03-15T15:59:20.940Z,85.30
2019-03-15T16:02:14.549Z,85.11
2019-03-15T16:04:43.002Z,85.51
2019-03-15T16:07:11.517Z,85.21
2019-03-15T16:09:40.000Z,85.43
2019-03-15T16:12:08.457Z,85.84
2019-03-15T16:14:36.926Z,85.78
2019-03-15T16:17:05.401Z,85.72
2019-03-15T16:19:33.854Z,86.60
2019-03-15T16:22:02.323Z,85.50
2019-03-15T16:24:30.849Z,85.44
2019-03-15T16:26:59.302Z,85.45
2019-03-15T16:29:27.756Z,85.66
2019-03-15T16:31:56.246Z,85.12
2019-03-15T16:34:24.695Z,85.14
2019-03-15T16:36:53.177Z,85.43
2019-03-15T16:39:21.694Z,85.12
2019-03-15T16:41:50.146Z,85.25
2019-03-15T16:44:18.592Z,85.17
2019-03-15T16:46:47.211Z,85.41
2019-03-15T16:49:15.661Z,84.92
2019-03-15T16:51:44.110Z,85.26
2019-03-15T16:54:13.083Z,85.86
2019-03-15T16:56:41.552Z,85.37
2019-03-15T16:59:10.003Z,85.47
2019-03-15T17:01:38.561Z,85.75
2019-03-15T17:04:07.010Z,86.17
2019-03-15T17:06:35.486Z,86.04
2019-03-15T17:09:04.438Z,86.48
2019-03-15T17:11:32.885Z,86.20
2019-03-15T17:14:01.339Z,86.54
2019-03-15T17:16:30.222Z,86.38
2019-03-15T17:18:58.787Z,86.82
2019-03-15T17:21:27.221Z,87.01
2019-03-15T17:23:55.764Z,87.00
2019-03-15T17:26:24.280Z,87.10
2019-03-15T17:28:58.635Z,87.22
2019-03-15T17:31:22.938Z,87.99
2019-03-15T17:33:51.386Z,88.28
2019-03-15T17:36:19.834Z,88.97
2019-03-15T17:38:48.699Z,88.88
2019-03-15T17:41:17.146Z,89.66
2019-03-15T17:43:45.598Z,90.68
2019-03-15T17:46:14.247Z,91.14
2019-03-15T17:48:42.800Z,90.76
2019-03-15T17:51:11.264Z,90.75
2019-03-15T17:53:40.411Z,90.74
2019-03-15T17:56:08.924Z,90.60
2019-03-15T17:58:37.755Z,90.36
2019-03-15T18:01:06.382Z,90.17
2019-03-15T18:03:34.831Z,89.93
2019-03-15T18:06:03.277Z,90.25
2019-03-15T18:08:31.762Z,89.95
2019-03-15T18:11:00.206Z,89.82
2019-03-15T18:13:28.661Z,89.65
2019-03-15T18:15:57.154Z,89.51
2019-03-15T18:18:25.596Z,89.75
2019-03-15T18:20:54.045Z,89.49
2019-03-15T18:23:22.550Z,89.71
2019-03-15T18:25:51.079Z,89.68
2019-03-15T18:28:19.525Z,89.83
2019-03-15T18:30:48.345Z,89.63
2019-03-15T18:33:16.832Z,89.24
2019-03-15T18:35:45.340Z,89.23
2019-03-15T18:38:13.990Z,89.29
2019-03-15T18:40:42.441Z,89.72
2019-03-15T18:43:10.888Z,89.24
2019-03-15T18:45:39.377Z,89.00
2019-03-15T18:48:07.909Z,89.35
2019-03-15T18:50:36.443Z,89.71
2019-03-15T18:53:05.182Z,90.58
2019-03-15T18:55:33.629Z,90.87
2019-03-15T18:58:02.081Z,91.42
2019-03-15T19:00:30.636Z,91.62
2019-03-15T19:03:00.146Z,91.62
2019-03-15T19:05:28.815Z,91.61
2019-03-15T19:07:57.301Z,91.76
2019-03-15T19:10:25.756Z,91.76
2019-03-15T19:12:54.203Z,91.68
2019-03-15T19:15:22.824Z,92.32
2019-03-15T19:17:51.442Z,91.75
2019-03-15T19:20:20.015Z,92.78
2019-03-15T19:22:48.610Z,92.43
2019-03-15T19:25:17.203Z,91.90
2019-03-15T19:27:45.802Z,91.64
2019-03-15T19:30:19.131Z,91.77
2019-03-15T19:32:47.571Z,91.71
2019-03-15T19:35:16.101Z,91.58
2019-03-15T19:37:44.597Z,91.09
2019-03-15T19:40:15.354Z,90.55
2019-03-15T19:42:45.445Z,91.11
2019-03-15T19:45:17.951Z,90.86
2019-03-15T19:47:46.463Z,91.54
2019-03-15T19:50:20.075Z,91.28
2019-03-15T19:52:48.634Z,91.15
2019-03-15T19:55:17.532Z,91.35
2019-03-15T19:57:46.090Z,91.50
2019-03-15T20:00:16.273Z,91.64
2019-03-15T20:02:44.789Z,91.44
2019-03-15T20:05:13.577Z,91.29
2019-03-15T20:07:42.219Z,90.77
2019-03-15T20:10:16.882Z,91.15
2019-03-15T20:12:45.620Z,91.00
2019-03-15T20:15:15.612Z,90.94
2019-03-15T20:17:44.136Z,91.12
2019-03-15T20:20:14.017Z,91.36
2019-03-15T20:22:42.876Z,91.31
2019-03-15T20:25:12.907Z,91.37
2019-03-15T20:27:41.361Z,91.76
2019-03-15T20:30:25.960Z,91.63
2019-03-15T20:32:50.395Z,91.75
2019-03-15T20:35:18.913Z,92.04
2019-03-15T20:37:47.827Z,92.09
2019-03-15T20:40:16.345Z,91.56
2019-03-15T20:42:44.797Z,91.92
2019-03-15T20:45:21.644Z,91.54
2019-03-15T20:47:50.284Z,91.79
2019-03-15T20:50:18.786Z,91.91
2019-03-15T20:52:47.312Z,91.82
2019-03-15T20:55:35.155Z,91.98
2019-03-15T21:00:38.133Z,91.44
2019-03-15T21:03:06.622Z,91.20
2019-03-15T21:05:35.072Z,91.70
2019-03-15T21:08:22.718Z,91.09
2019-03-15T21:10:51.663Z,91.15
2019-03-15T21:13:21.324Z,91.33
2019-03-15T21:18:23.730Z,91.32
2019-03-15T21:21:11.468Z,90.89
2019-03-15T21:23:39.913Z,90.76
2019-03-15T21:26:08.365Z,90.29
2019-03-15T21:28:36.854Z,90.44
2019-03-15T21:31:05.300Z,89.91
2019-03-15T21:33:33.757Z,90.02
2019-03-15T21:36:21.557Z,89.74
2019-03-15T21:38:50.010Z,89.79
2019-03-15T21:41:18.461Z,90.42
2019-03-15T21:46:21.057Z,90.38
2019-03-15T21:48:49.506Z,90.19
2019-03-15T21:51:17.987Z,90.48
2019-03-15T21:53:46.444Z,91.12
2019-03-15T21:56:14.894Z,91.71
2019-03-15T21:58:43.374Z,91.92
2019-03-15T22:01:11.836Z,92.68
2019-03-15T22:03:40.272Z,93.00
2019-03-15T22:06:27.969Z,93.17
2019-03-15T22:08:56.419Z,93.88
2019-03-15T22:11:24.865Z,93.29
2019-03-15T22:16:27.013Z,94.48
2019-03-15T22:18:55.465Z,94.81
2019-03-15T22:24:17.665Z,94.98
2019-03-15T22:26:46.150Z,95.15
2019-03-15T22:29:14.598Z,95.73
2019-03-15T22:32:02.638Z,95.50
2019-03-15T22:34:31.084Z,95.43
2019-03-15T22:36:59.533Z,95.51
2019-03-15T22:42:01.967Z,96.31
2019-03-15T22:44:30.452Z,96.25
2019-03-15T22:46:58.910Z,96.18
2019-03-15T22:49:27.375Z,95.75
2019-03-15T22:54:29.489Z,95.91
2019-03-15T22:59:31.977Z,95.72
2019-03-15T23:02:00.438Z,95.92
2019-03-15T23:07:03.236Z,95.78
2019-03-15T23:09:51.131Z,95.61
2019-03-15T23:12:19.576Z,96.34
2019-03-15T23:14:48.029Z,96.21
2019-03-15T23:17:16.527Z,96.07
2019-03-15T23:19:45.000Z,95.45
2019-03-15T23:22:13.450Z,96.01
2019-03-15T23:24:41.933Z,95.64
2019-03-15T23:27:10.382Z,95.45
2019-03-15T23:29:38.830Z,95.40
2019-03-15T23:34:40.833Z,95.30
2019-03-15T23:37:09.281Z,94.69
2019-03-15T23:42:11.988Z,95.32
2019-03-15T23:47:34.006Z,95.58
2019-03-15T23:52:36.426Z,95.04
2019-03-15T23:55:44.933Z,95.50
2019-03-15T23:58:13.380Z,95.42
